sensor_id;sensor_type;location;lat;lon;timestamp;P1;durP1;ratioP1;P2;durP2;ratioP2
31298;SDS011;17927;52.350;13.402;2022-11-23T00:01:14;51.03;;;25.05;;
31298;SDS011;17927;52.350;13.402;2022-11-23T00:03:42;50.63;;;24.33;;
31298;SDS011;17927;52.350;13.402;2022-11-23T00:06:08;51.70;;;24.75;;
31298;SDS011;17927;52.350;13.402;2022-11-23T00:08:33;45.05;;;23.10;;
31298;SDS011;17927;52.350;13.402;2022-11-23T00:10:58;46.90;;;24.63;;
31298;SDS011;17927;52.350;13.402;2022-11-23T00:13:24;51.08;;;23.73;;
31298;SDS011;17927;52.350;13.402;2022-11-23T00:15:49;52.30;;;24.35;;
31298;SDS011;17927;52.350;13.402;2022-11-23T00:18:14;49.22;;;22.95;;
31298;SDS011;17927;52.350;13.402;2022-11-23T00:20:40;49.80;;;24.85;;
31298;SDS011;17927;52.350;13.402;2022-11-23T00:23:05;50.08;;;24.35;;
31298;SDS011;17927;52.350;13.402;2022-11-23T00:25:30;49.83;;;24.23;;
31298;SDS011;17927;52.350;13.402;2022-11-23T00:27:55;44.45;;;23.42;;
31298;SDS011;17927;52.350;13.402;2022-11-23T00:30:21;51.85;;;25.60;;
31298;SDS011;17927;52.350;13.402;2022-11-23T00:32:46;49.53;;;23.75;;
31298;SDS011;17927;52.350;13.402;2022-11-23T00:35:11;49.40;;;24.73;;
31298;SDS011;17927;52.350;13.402;2022-11-23T00:37:36;47.55;;;22.90;;
31298;SDS011;17927;52.350;13.402;2022-11-23T00:40:02;46.13;;;23.48;;
31298;SDS011;17927;52.350;13.402;2022-11-23T00:42:27;47.17;;;23.35;;
31298;SDS011;17927;52.350;13.402;2022-11-23T00:44:52;50.97;;;24.60;;
31298;SDS011;17927;52.350;13.402;2022-11-23T00:47:18;50.05;;;24.17;;
31298;SDS011;17927;52.350;13.402;2022-11-23T00:49:43;49.05;;;25.23;;
31298;SDS011;17927;52.350;13.402;2022-11-23T00:52:08;46.83;;;23.38;;
31298;SDS011;17927;52.350;13.402;2022-11-23T00:54:33;44.50;;;21.80;;
31298;SDS011;17927;52.350;13.402;2022-11-23T00:56:59;44.28;;;23.17;;
31298;SDS011;17927;52.350;13.402;2022-11-23T00:59:24;48.83;;;23.73;;
31298;SDS011;17927;52.350;13.402;2022-11-23T01:01:49;48.97;;;23.35;;
31298;SDS011;17927;52.350;13.402;2022-11-23T01:04:14;46.13;;;23.83;;
31298;SDS011;17927;52.350;13.402;2022-11-23T01:06:40;48.50;;;24.17;;
31298;SDS011;17927;52.350;13.402;2022-11-23T01:09:06;47.97;;;24.20;;
31298;SDS011;17927;52.350;13.402;2022-11-23T01:11:35;46.20;;;22.10;;
31298;SDS011;17927;52.350;13.402;2022-11-23T01:14:01;43.15;;;21.77;;
31298;SDS011;17927;52.350;13.402;2022-11-23T01:16:28;43.28;;;22.20;;
31298;SDS011;17927;52.350;13.402;2022-11-23T01:18:59;47.72;;;22.83;;
31298;SDS011;17927;52.350;13.402;2022-11-23T01:21:26;42.70;;;20.95;;
31298;SDS011;17927;52.350;13.402;2022-11-23T01:23:53;45.50;;;22.35;;
31298;SDS011;17927;52.350;13.402;2022-11-23T01:26:19;39.78;;;21.13;;
31298;SDS011;17927;52.350;13.402;2022-11-23T01:28:45;42.72;;;21.27;;
31298;SDS011;17927;52.350;13.402;2022-11-23T01:31:11;45.38;;;23.70;;
31298;SDS011;17927;52.350;13.402;2022-11-23T01:33:38;47.55;;;22.50;;
31298;SDS011;17927;52.350;13.402;2022-11-23T01:36:23;42.17;;;22.30;;
31298;SDS011;17927;52.350;13.402;2022-11-23T01:38:50;45.63;;;22.52;;
31298;SDS011;17927;52.350;13.402;2022-11-23T01:41:16;44.20;;;23.85;;
31298;SDS011;17927;52.350;13.402;2022-11-23T01:43:43;50.28;;;22.65;;
31298;SDS011;17927;52.350;13.402;2022-11-23T01:46:09;39.80;;;22.10;;
31298;SDS011;17927;52.350;13.402;2022-11-23T01:48:50;44.78;;;21.95;;
31298;SDS011;17927;52.350;13.402;2022-11-23T01:51:26;43.45;;;22.40;;
31298;SDS011;17927;52.350;13.402;2022-11-23T01:53:59;42.75;;;20.95;;
31298;SDS011;17927;52.350;13.402;2022-11-23T01:56:29;38.25;;;19.85;;
31298;SDS011;17927;52.350;13.402;2022-11-23T02:01:26;43.08;;;21.85;;
31298;SDS011;17927;52.350;13.402;2022-11-23T02:03:51;41.00;;;21.50;;
31298;SDS011;17927;52.350;13.402;2022-11-23T02:06:20;42.22;;;21.20;;
31298;SDS011;17927;52.350;13.402;2022-11-23T02:08:47;40.67;;;22.17;;
31298;SDS011;17927;52.350;13.402;2022-11-23T02:11:13;43.53;;;21.88;;
31298;SDS011;17927;52.350;13.402;2022-11-23T02:13:40;40.47;;;20.27;;
31298;SDS011;17927;52.350;13.402;2022-11-23T02:16:08;37.60;;;21.55;;
31298;SDS011;17927;52.350;13.402;2022-11-23T02:18:34;42.55;;;21.42;;
31298;SDS011;17927;52.350;13.402;2022-11-23T02:21:04;40.92;;;21.58;;
31298;SDS011;17927;52.350;13.402;2022-11-23T02:26:03;45.42;;;23.05;;
31298;SDS011;17927;52.350;13.402;2022-11-23T02:28:34;40.15;;;21.38;;
31298;SDS011;17927;52.350;13.402;2022-11-23T02:31:02;36.90;;;20.02;;
31298;SDS011;17927;52.350;13.402;2022-11-23T02:33:28;40.35;;;21.55;;
31298;SDS011;17927;52.350;13.402;2022-11-23T02:35:55;41.33;;;21.88;;
31298;SDS011;17927;52.350;13.402;2022-11-23T02:38:23;40.75;;;21.88;;
31298;SDS011;17927;52.350;13.402;2022-11-23T02:40:51;42.70;;;21.02;;
31298;SDS011;17927;52.350;13.402;2022-11-23T02:43:17;43.85;;;23.27;;
31298;SDS011;17927;52.350;13.402;2022-11-23T02:45:48;38.63;;;20.67;;
31298;SDS011;17927;52.350;13.402;2022-11-23T02:48:15;40.72;;;21.27;;
31298;SDS011;17927;52.350;13.402;2022-11-23T02:50:41;38.30;;;21.77;;
31298;SDS011;17927;52.350;13.402;2022-11-23T02:53:06;42.20;;;21.85;;
31298;SDS011;17927;52.350;13.402;2022-11-23T02:55:32;41.47;;;21.77;;
31298;SDS011;17927;52.350;13.402;2022-11-23T02:57:57;38.17;;;20.83;;
31298;SDS011;17927;52.350;13.402;2022-11-23T03:00:22;38.60;;;20.33;;
31298;SDS011;17927;52.350;13.402;2022-11-23T03:02:47;40.78;;;21.73;;
31298;SDS011;17927;52.350;13.402;2022-11-23T03:05:13;41.47;;;20.42;;
31298;SDS011;17927;52.350;13.402;2022-11-23T03:07:38;41.65;;;21.67;;
31298;SDS011;17927;52.350;13.402;2022-11-23T03:10:04;40.35;;;20.23;;
31298;SDS011;17927;52.350;13.402;2022-11-23T03:12:29;39.88;;;20.52;;
31298;SDS011;17927;52.350;13.402;2022-11-23T03:14:55;40.08;;;21.73;;
31298;SDS011;17927;52.350;13.402;2022-11-23T03:17:20;42.67;;;21.55;;
31298;SDS011;17927;52.350;13.402;2022-11-23T03:19:45;41.67;;;21.20;;
31298;SDS011;17927;52.350;13.402;2022-11-23T03:22:10;36.58;;;21.08;;
31298;SDS011;17927;52.350;13.402;2022-11-23T03:24:36;38.25;;;22.75;;
31298;SDS011;17927;52.350;13.402;2022-11-23T03:27:01;42.92;;;22.05;;
31298;SDS011;17927;52.350;13.402;2022-11-23T03:29:26;44.53;;;22.40;;
31298;SDS011;17927;52.350;13.402;2022-11-23T03:31:52;41.53;;;22.42;;
31298;SDS011;17927;52.350;13.402;2022-11-23T03:34:18;47.35;;;21.95;;
31298;SDS011;17927;52.350;13.402;2022-11-23T03:36:43;38.22;;;20.60;;
31298;SDS011;17927;52.350;13.402;2022-11-23T03:39:08;43.35;;;21.98;;
31298;SDS011;17927;52.350;13.402;2022-11-23T03:41:34;39.72;;;21.20;;
31298;SDS011;17927;52.350;13.402;2022-11-23T03:43:59;34.58;;;19.77;;
31298;SDS011;17927;52.350;13.402;2022-11-23T03:46:25;40.22;;;20.63;;
31298;SDS011;17927;52.350;13.402;2022-11-23T03:48:50;37.28;;;20.05;;
31298;SDS011;17927;52.350;13.402;2022-11-23T03:51:15;45.53;;;22.42;;
31298;SDS011;17927;52.350;13.402;2022-11-23T03:53:40;41.13;;;21.30;;
31298;SDS011;17927;52.350;13.402;2022-11-23T03:56:06;40.97;;;20.70;;
31298;SDS011;17927;52.350;13.402;2022-11-23T03:58:31;40.45;;;21.08;;
31298;SDS011;17927;52.350;13.402;2022-11-23T04:00:56;40.55;;;22.20;;
31298;SDS011;17927;52.350;13.402;2022-11-23T04:03:22;40.20;;;21.02;;
31298;SDS011;17927;52.350;13.402;2022-11-23T04:05:47;38.28;;;21.73;;
31298;SDS011;17927;52.350;13.402;2022-11-23T04:08:12;39.28;;;21.30;;
31298;SDS011;17927;52.350;13.402;2022-11-23T04:10:38;39.60;;;21.63;;
31298;SDS011;17927;52.350;13.402;2022-11-23T04:13:03;42.00;;;20.33;;
31298;SDS011;17927;52.350;13.402;2022-11-23T04:15:28;41.22;;;21.48;;
31298;SDS011;17927;52.350;13.402;2022-11-23T04:17:54;41.33;;;20.65;;
31298;SDS011;17927;52.350;13.402;2022-11-23T04:20:19;39.03;;;21.02;;
31298;SDS011;17927;52.350;13.402;2022-11-23T04:22:44;49.95;;;25.88;;
31298;SDS011;17927;52.350;13.402;2022-11-23T04:25:10;43.42;;;22.58;;
31298;SDS011;17927;52.350;13.402;2022-11-23T04:27:35;40.03;;;21.85;;
31298;SDS011;17927;52.350;13.402;2022-11-23T04:30:00;40.42;;;20.90;;
31298;SDS011;17927;52.350;13.402;2022-11-23T04:32:25;38.28;;;20.50;;
31298;SDS011;17927;52.350;13.402;2022-11-23T04:34:51;40.83;;;21.13;;
31298;SDS011;17927;52.350;13.402;2022-11-23T04:37:16;44.10;;;23.13;;
31298;SDS011;17927;52.350;13.402;2022-11-23T04:39:41;41.95;;;22.75;;
31298;SDS011;17927;52.350;13.402;2022-11-23T04:42:07;35.95;;;20.70;;
31298;SDS011;17927;52.350;13.402;2022-11-23T04:44:34;38.45;;;19.92;;
31298;SDS011;17927;52.350;13.402;2022-11-23T04:47:00;42.80;;;20.30;;
31298;SDS011;17927;52.350;13.402;2022-11-23T04:49:25;37.92;;;20.80;;
31298;SDS011;17927;52.350;13.402;2022-11-23T04:51:51;41.38;;;21.42;;
31298;SDS011;17927;52.350;13.402;2022-11-23T04:54:16;42.90;;;21.85;;
31298;SDS011;17927;52.350;13.402;2022-11-23T04:56:41;39.97;;;20.50;;
31298;SDS011;17927;52.350;13.402;2022-11-23T04:59:06;41.47;;;20.65;;
31298;SDS011;17927;52.350;13.402;2022-11-23T05:01:32;42.53;;;22.25;;
31298;SDS011;17927;52.350;13.402;2022-11-23T05:03:57;38.20;;;20.30;;
31298;SDS011;17927;52.350;13.402;2022-11-23T05:06:22;36.53;;;19.77;;
31298;SDS011;17927;52.350;13.402;2022-11-23T05:08:47;40.05;;;20.95;;
31298;SDS011;17927;52.350;13.402;2022-11-23T05:11:12;38.90;;;19.70;;
31298;SDS011;17927;52.350;13.402;2022-11-23T05:13:38;38.50;;;20.38;;
31298;SDS011;17927;52.350;13.402;2022-11-23T05:16:03;38.22;;;20.58;;
31298;SDS011;17927;52.350;13.402;2022-11-23T05:18:28;36.80;;;20.63;;
31298;SDS011;17927;52.350;13.402;2022-11-23T05:20:53;45.58;;;22.23;;
31298;SDS011;17927;52.350;13.402;2022-11-23T05:23:19;35.83;;;19.45;;
31298;SDS011;17927;52.350;13.402;2022-11-23T05:25:44;36.83;;;21.17;;
31298;SDS011;17927;52.350;13.402;2022-11-23T05:28:13;40.35;;;20.85;;
31298;SDS011;17927;52.350;13.402;2022-11-23T05:30:40;36.22;;;20.33;;
31298;SDS011;17927;52.350;13.402;2022-11-23T05:33:05;37.45;;;19.45;;
31298;SDS011;17927;52.350;13.402;2022-11-23T05:35:30;40.25;;;20.80;;
31298;SDS011;17927;52.350;13.402;2022-11-23T05:37:56;38.85;;;19.73;;
31298;SDS011;17927;52.350;13.402;2022-11-23T05:40:21;36.28;;;19.63;;
31298;SDS011;17927;52.350;13.402;2022-11-23T05:42:47;35.88;;;20.02;;
31298;SDS011;17927;52.350;13.402;2022-11-23T05:45:12;42.65;;;21.63;;
31298;SDS011;17927;52.350;13.402;2022-11-23T05:47:37;37.55;;;18.88;;
31298;SDS011;17927;52.350;13.402;2022-11-23T05:50:03;38.15;;;20.50;;
31298;SDS011;17927;52.350;13.402;2022-11-23T05:52:28;44.30;;;20.20;;
31298;SDS011;17927;52.350;13.402;2022-11-23T05:54:53;37.47;;;19.95;;
31298;SDS011;17927;52.350;13.402;2022-11-23T05:57:19;37.92;;;20.85;;
31298;SDS011;17927;52.350;13.402;2022-11-23T05:59:46;35.00;;;20.55;;
31298;SDS011;17927;52.350;13.402;2022-11-23T06:02:11;38.88;;;20.23;;
31298;SDS011;17927;52.350;13.402;2022-11-23T06:04:37;36.63;;;18.98;;
31298;SDS011;17927;52.350;13.402;2022-11-23T06:07:02;35.08;;;19.27;;
31298;SDS011;17927;52.350;13.402;2022-11-23T06:09:27;35.08;;;19.25;;
31298;SDS011;17927;52.350;13.402;2022-11-23T06:11:52;39.25;;;20.80;;
31298;SDS011;17927;52.350;13.402;2022-11-23T06:14:18;37.95;;;19.95;;
31298;SDS011;17927;52.350;13.402;2022-11-23T06:16:43;39.70;;;20.73;;
31298;SDS011;17927;52.350;13.402;2022-11-23T06:19:08;41.65;;;21.30;;
31298;SDS011;17927;52.350;13.402;2022-11-23T06:21:33;34.83;;;19.80;;
31298;SDS011;17927;52.350;13.402;2022-11-23T06:23:59;35.13;;;19.98;;
31298;SDS011;17927;52.350;13.402;2022-11-23T06:26:24;41.03;;;19.77;;
31298;SDS011;17927;52.350;13.402;2022-11-23T06:28:49;34.33;;;20.25;;
31298;SDS011;17927;52.350;13.402;2022-11-23T06:31:15;38.75;;;20.48;;
31298;SDS011;17927;52.350;13.402;2022-11-23T06:33:40;40.45;;;21.13;;
31298;SDS011;17927;52.350;13.402;2022-11-23T06:36:05;32.75;;;18.67;;
31298;SDS011;17927;52.350;13.402;2022-11-23T06:38:31;36.42;;;19.55;;
31298;SDS011;17927;52.350;13.402;2022-11-23T06:40:59;41.95;;;20.80;;
31298;SDS011;17927;52.350;13.402;2022-11-23T06:43:25;36.40;;;18.73;;
31298;SDS011;17927;52.350;13.402;2022-11-23T06:45:52;38.15;;;19.58;;
31298;SDS011;17927;52.350;13.402;2022-11-23T06:48:18;36.25;;;18.77;;
31298;SDS011;17927;52.350;13.402;2022-11-23T06:50:43;33.20;;;18.98;;
31298;SDS011;17927;52.350;13.402;2022-11-23T06:53:09;33.70;;;18.63;;
31298;SDS011;17927;52.350;13.402;2022-11-23T06:55:36;35.95;;;18.60;;
31298;SDS011;17927;52.350;13.402;2022-11-23T06:58:01;34.97;;;19.48;;
31298;SDS011;17927;52.350;13.402;2022-11-23T07:00:27;32.95;;;18.83;;
31298;SDS011;17927;52.350;13.402;2022-11-23T07:02:52;35.42;;;18.23;;
31298;SDS011;17927;52.350;13.402;2022-11-23T07:05:19;36.15;;;18.75;;
31298;SDS011;17927;52.350;13.402;2022-11-23T07:07:45;42.03;;;20.98;;
31298;SDS011;17927;52.350;13.402;2022-11-23T07:10:10;38.08;;;19.52;;
31298;SDS011;17927;52.350;13.402;2022-11-23T07:12:37;34.45;;;20.90;;
31298;SDS011;17927;52.350;13.402;2022-11-23T07:15:02;35.08;;;20.25;;
31298;SDS011;17927;52.350;13.402;2022-11-23T07:17:28;37.45;;;20.55;;
31298;SDS011;17927;52.350;13.402;2022-11-23T07:19:53;39.22;;;21.48;;
31298;SDS011;17927;52.350;13.402;2022-11-23T07:22:18;36.67;;;21.02;;
31298;SDS011;17927;52.350;13.402;2022-11-23T07:24:43;42.75;;;21.88;;
31298;SDS011;17927;52.350;13.402;2022-11-23T07:27:09;38.95;;;21.58;;
31298;SDS011;17927;52.350;13.402;2022-11-23T07:29:34;36.72;;;21.35;;
31298;SDS011;17927;52.350;13.402;2022-11-23T07:31:59;38.97;;;21.27;;
31298;SDS011;17927;52.350;13.402;2022-11-23T07:34:26;36.78;;;20.52;;
31298;SDS011;17927;52.350;13.402;2022-11-23T07:36:52;41.38;;;20.55;;
31298;SDS011;17927;52.350;13.402;2022-11-23T07:39:17;39.95;;;19.58;;
31298;SDS011;17927;52.350;13.402;2022-11-23T07:41:42;33.25;;;19.55;;
31298;SDS011;17927;52.350;13.402;2022-11-23T07:44:07;34.58;;;19.88;;
31298;SDS011;17927;52.350;13.402;2022-11-23T07:46:33;33.90;;;18.98;;
31298;SDS011;17927;52.350;13.402;2022-11-23T07:48:58;39.38;;;20.55;;
31298;SDS011;17927;52.350;13.402;2022-11-23T07:51:26;37.25;;;19.92;;
31298;SDS011;17927;52.350;13.402;2022-11-23T07:53:51;38.95;;;20.33;;
31298;SDS011;17927;52.350;13.402;2022-11-23T07:56:17;37.05;;;18.73;;
31298;SDS011;17927;52.350;13.402;2022-11-23T07:58:42;35.40;;;20.00;;
31298;SDS011;17927;52.350;13.402;2022-11-23T08:01:07;41.15;;;19.77;;
31298;SDS011;17927;52.350;13.402;2022-11-23T08:03:32;34.70;;;18.42;;
31298;SDS011;17927;52.350;13.402;2022-11-23T08:05:58;32.17;;;18.73;;
31298;SDS011;17927;52.350;13.402;2022-11-23T08:08:23;30.55;;;18.33;;
31298;SDS011;17927;52.350;13.402;2022-11-23T08:10:49;31.58;;;18.60;;
31298;SDS011;17927;52.350;13.402;2022-11-23T08:13:14;33.25;;;18.00;;
31298;SDS011;17927;52.350;13.402;2022-11-23T08:15:39;34.33;;;19.20;;
31298;SDS011;17927;52.350;13.402;2022-11-23T08:18:04;35.33;;;19.08;;
31298;SDS011;17927;52.350;13.402;2022-11-23T08:20:30;33.88;;;18.75;;
31298;SDS011;17927;52.350;13.402;2022-11-23T08:22:57;34.63;;;18.75;;
31298;SDS011;17927;52.350;13.402;2022-11-23T08:25:23;32.03;;;18.20;;
31298;SDS011;17927;52.350;13.402;2022-11-23T08:27:55;37.80;;;18.38;;
31298;SDS011;17927;52.350;13.402;2022-11-23T08:30:22;33.75;;;18.67;;
31298;SDS011;17927;52.350;13.402;2022-11-23T08:32:48;32.55;;;18.58;;
31298;SDS011;17927;52.350;13.402;2022-11-23T08:35:13;36.25;;;18.70;;
31298;SDS011;17927;52.350;13.402;2022-11-23T08:37:38;34.85;;;18.25;;
31298;SDS011;17927;52.350;13.402;2022-11-23T08:40:04;31.42;;;17.13;;
31298;SDS011;17927;52.350;13.402;2022-11-23T08:42:30;31.17;;;18.25;;
31298;SDS011;17927;52.350;13.402;2022-11-23T08:44:55;33.78;;;19.23;;
31298;SDS011;17927;52.350;13.402;2022-11-23T08:47:23;31.42;;;18.30;;
31298;SDS011;17927;52.350;13.402;2022-11-23T08:49:49;33.10;;;19.02;;
31298;SDS011;17927;52.350;13.402;2022-11-23T08:52:14;33.33;;;18.23;;
31298;SDS011;17927;52.350;13.402;2022-11-23T08:54:39;36.80;;;19.63;;
31298;SDS011;17927;52.350;13.402;2022-11-23T08:57:04;35.30;;;18.67;;
31298;SDS011;17927;52.350;13.402;2022-11-23T08:59:30;35.92;;;18.48;;
31298;SDS011;17927;52.350;13.402;2022-11-23T09:01:55;36.10;;;19.77;;
31298;SDS011;17927;52.350;13.402;2022-11-23T09:04:20;34.55;;;19.20;;
31298;SDS011;17927;52.350;13.402;2022-11-23T09:06:46;33.85;;;18.85;;
31298;SDS011;17927;52.350;13.402;2022-11-23T09:09:11;36.78;;;18.52;;
31298;SDS011;17927;52.350;13.402;2022-11-23T09:11:36;37.70;;;20.33;;
31298;SDS011;17927;52.350;13.402;2022-11-23T09:14:01;40.53;;;19.77;;
31298;SDS011;17927;52.350;13.402;2022-11-23T09:16:27;42.90;;;21.17;;
31298;SDS011;17927;52.350;13.402;2022-11-23T09:18:55;36.88;;;20.30;;
31298;SDS011;17927;52.350;13.402;2022-11-23T09:21:21;37.33;;;19.10;;
31298;SDS011;17927;52.350;13.402;2022-11-23T09:23:46;30.63;;;17.80;;
31298;SDS011;17927;52.350;13.402;2022-11-23T09:26:11;26.92;;;16.40;;
31298;SDS011;17927;52.350;13.402;2022-11-23T09:28:36;25.63;;;15.45;;
31298;SDS011;17927;52.350;13.402;2022-11-23T09:31:02;24.80;;;15.13;;
31298;SDS011;17927;52.350;13.402;2022-11-23T09:33:28;30.88;;;17.08;;
31298;SDS011;17927;52.350;13.402;2022-11-23T09:36:00;27.58;;;16.13;;
31298;SDS011;17927;52.350;13.402;2022-11-23T09:38:27;28.38;;;14.27;;
31298;SDS011;17927;52.350;13.402;2022-11-23T09:40:56;29.58;;;15.30;;
31298;SDS011;17927;52.350;13.402;2022-11-23T09:43:53;22.67;;;14.27;;
31298;SDS011;17927;52.350;13.402;2022-11-23T09:49:17;24.58;;;14.85;;
31298;SDS011;17927;52.350;13.402;2022-11-23T09:51:45;23.50;;;13.68;;
31298;SDS011;17927;52.350;13.402;2022-11-23T09:56:46;26.95;;;15.18;;
31298;SDS011;17927;52.350;13.402;2022-11-23T09:59:30;24.33;;;13.68;;
31298;SDS011;17927;52.350;13.402;2022-11-23T10:02:03;26.80;;;13.40;;
31298;SDS011;17927;52.350;13.402;2022-11-23T10:04:32;22.75;;;13.85;;
31298;SDS011;17927;52.350;13.402;2022-11-23T10:07:17;24.02;;;14.10;;
31298;SDS011;17927;52.350;13.402;2022-11-23T10:10:11;25.15;;;14.85;;
31298;SDS011;17927;52.350;13.402;2022-11-23T10:12:50;25.23;;;14.25;;
31298;SDS011;17927;52.350;13.402;2022-11-23T10:16:12;24.02;;;14.55;;
31298;SDS011;17927;52.350;13.402;2022-11-23T10:18:26;22.88;;;13.80;;
31298;SDS011;17927;52.350;13.402;2022-11-23T10:21:49;24.60;;;15.13;;
31298;SDS011;17927;52.350;13.402;2022-11-23T10:26:33;24.98;;;15.05;;
31298;SDS011;17927;52.350;13.402;2022-11-23T10:29:09;22.20;;;14.70;;
31298;SDS011;17927;52.350;13.402;2022-11-23T10:31:38;23.80;;;14.13;;
31298;SDS011;17927;52.350;13.402;2022-11-23T10:34:09;24.35;;;14.57;;
31298;SDS011;17927;52.350;13.402;2022-11-23T10:36:37;30.13;;;16.00;;
31298;SDS011;17927;52.350;13.402;2022-11-23T10:39:21;25.98;;;13.90;;
31298;SDS011;17927;52.350;13.402;2022-11-23T10:41:48;25.13;;;13.75;;
31298;SDS011;17927;52.350;13.402;2022-11-23T10:44:25;21.85;;;13.48;;
31298;SDS011;17927;52.350;13.402;2022-11-23T10:46:54;25.25;;;15.48;;
31298;SDS011;17927;52.350;13.402;2022-11-23T10:49:23;23.27;;;13.82;;
31298;SDS011;17927;52.350;13.402;2022-11-23T10:54:22;23.02;;;14.27;;
31298;SDS011;17927;52.350;13.402;2022-11-23T10:56:50;22.17;;;13.65;;
31298;SDS011;17927;52.350;13.402;2022-11-23T10:59:36;24.27;;;13.90;;
31298;SDS011;17927;52.350;13.402;2022-11-23T11:02:13;19.20;;;12.55;;
31298;SDS011;17927;52.350;13.402;2022-11-23T11:04:41;26.40;;;12.88;;
31298;SDS011;17927;52.350;13.402;2022-11-23T11:07:26;23.60;;;13.05;;
31298;SDS011;17927;52.350;13.402;2022-11-23T11:09:57;23.65;;;12.98;;
31298;SDS011;17927;52.350;13.402;2022-11-23T11:12:24;22.70;;;14.27;;
31298;SDS011;17927;52.350;13.402;2022-11-23T11:14:59;22.73;;;12.98;;
31298;SDS011;17927;52.350;13.402;2022-11-23T11:17:34;23.20;;;13.10;;
31298;SDS011;17927;52.350;13.402;2022-11-23T11:20:00;21.52;;;12.43;;
31298;SDS011;17927;52.350;13.402;2022-11-23T11:22:59;19.90;;;11.80;;
31298;SDS011;17927;52.350;13.402;2022-11-23T11:25:37;26.05;;;12.77;;
31298;SDS011;17927;52.350;13.402;2022-11-23T11:28:03;19.85;;;13.30;;
31298;SDS011;17927;52.350;13.402;2022-11-23T11:30:45;16.83;;;11.88;;
31298;SDS011;17927;52.350;13.402;2022-11-23T11:33:35;20.00;;;12.63;;
31298;SDS011;17927;52.350;13.402;2022-11-23T11:36:10;19.77;;;12.30;;
31298;SDS011;17927;52.350;13.402;2022-11-23T11:38:40;19.50;;;12.10;;
31298;SDS011;17927;52.350;13.402;2022-11-23T11:41:10;21.92;;;12.40;;
31298;SDS011;17927;52.350;13.402;2022-11-23T11:43:43;20.95;;;12.25;;
31298;SDS011;17927;52.350;13.402;2022-11-23T11:46:12;20.92;;;12.10;;
31298;SDS011;17927;52.350;13.402;2022-11-23T11:48:54;18.45;;;11.38;;
31298;SDS011;17927;52.350;13.402;2022-11-23T11:51:34;17.80;;;11.52;;
31298;SDS011;17927;52.350;13.402;2022-11-23T11:54:12;16.42;;;10.90;;
31298;SDS011;17927;52.350;13.402;2022-11-23T11:56:51;16.48;;;11.30;;
31298;SDS011;17927;52.350;13.402;2022-11-23T11:59:27;17.90;;;11.15;;
31298;SDS011;17927;52.350;13.402;2022-11-23T12:01:59;14.70;;;10.68;;
31298;SDS011;17927;52.350;13.402;2022-11-23T12:04:41;20.95;;;10.90;;
31298;SDS011;17927;52.350;13.402;2022-11-23T12:07:54;16.27;;;11.30;;
31298;SDS011;17927;52.350;13.402;2022-11-23T12:10:05;16.60;;;10.95;;
31298;SDS011;17927;52.350;13.402;2022-11-23T12:12:36;17.17;;;10.50;;
31298;SDS011;17927;52.350;13.402;2022-11-23T12:15:04;18.92;;;11.25;;
31298;SDS011;17927;52.350;13.402;2022-11-23T12:20:42;15.23;;;9.98;;
31298;SDS011;17927;52.350;13.402;2022-11-23T12:23:26;12.80;;;9.40;;
31298;SDS011;17927;52.350;13.402;2022-11-23T12:26:15;14.18;;;8.85;;
31298;SDS011;17927;52.350;13.402;2022-11-23T12:28:53;14.43;;;9.88;;
31298;SDS011;17927;52.350;13.402;2022-11-23T12:31:41;14.68;;;9.35;;
31298;SDS011;17927;52.350;13.402;2022-11-23T12:34:24;12.38;;;8.82;;
31298;SDS011;17927;52.350;13.402;2022-11-23T12:42:28;13.65;;;8.93;;
31298;SDS011;17927;52.350;13.402;2022-11-23T12:45:05;12.75;;;8.30;;
31298;SDS011;17927;52.350;13.402;2022-11-23T12:47:50;11.30;;;8.60;;
31298;SDS011;17927;52.350;13.402;2022-11-23T12:50:54;15.07;;;9.07;;
31298;SDS011;17927;52.350;13.402;2022-11-23T12:58:38;12.20;;;8.00;;
31298;SDS011;17927;52.350;13.402;2022-11-23T13:01:09;11.80;;;7.78;;
31298;SDS011;17927;52.350;13.402;2022-11-23T13:06:54;9.85;;;7.70;;
31298;SDS011;17927;52.350;13.402;2022-11-23T13:12:06;10.90;;;7.43;;
31298;SDS011;17927;52.350;13.402;2022-11-23T13:20:48;11.43;;;7.88;;
31298;SDS011;17927;52.350;13.402;2022-11-23T13:23:27;10.93;;;7.75;;
31298;SDS011;17927;52.350;13.402;2022-11-23T13:26:15;13.30;;;8.23;;
31298;SDS011;17927;52.350;13.402;2022-11-23T13:28:45;12.15;;;8.07;;
31298;SDS011;17927;52.350;13.402;2022-11-23T13:33:46;12.27;;;7.80;;
31298;SDS011;17927;52.350;13.402;2022-11-23T13:38:54;12.23;;;7.75;;
31298;SDS011;17927;52.350;13.402;2022-11-23T13:43:57;13.85;;;8.63;;
31298;SDS011;17927;52.350;13.402;2022-11-23T13:46:23;16.73;;;10.02;;
31298;SDS011;17927;52.350;13.402;2022-11-23T13:48:56;17.48;;;9.65;;
31298;SDS011;17927;52.350;13.402;2022-11-23T13:51:26;12.23;;;9.05;;
31298;SDS011;17927;52.350;13.402;2022-11-23T13:53:55;14.77;;;10.43;;
31298;SDS011;17927;52.350;13.402;2022-11-23T13:56:33;23.60;;;10.48;;
31298;SDS011;17927;52.350;13.402;2022-11-23T14:02:01;16.70;;;10.38;;
31298;SDS011;17927;52.350;13.402;2022-11-23T14:04:37;15.15;;;10.27;;
31298;SDS011;17927;52.350;13.402;2022-11-23T14:10:05;14.35;;;10.30;;
31298;SDS011;17927;52.350;13.402;2022-11-23T14:12:56;16.77;;;9.85;;
31298;SDS011;17927;52.350;13.402;2022-11-23T14:15:27;15.00;;;10.02;;
31298;SDS011;17927;52.350;13.402;2022-11-23T14:23:44;12.45;;;9.45;;
31298;SDS011;17927;52.350;13.402;2022-11-23T14:31:58;15.15;;;9.80;;
31298;SDS011;17927;52.350;13.402;2022-11-23T14:37:31;13.20;;;9.93;;
31298;SDS011;17927;52.350;13.402;2022-11-23T14:43:15;17.95;;;9.63;;
31298;SDS011;17927;52.350;13.402;2022-11-23T14:45:43;16.33;;;10.60;;
31298;SDS011;17927;52.350;13.402;2022-11-23T14:48:24;14.77;;;10.68;;
31298;SDS011;17927;52.350;13.402;2022-11-23T14:50:56;14.05;;;10.48;;
31298;SDS011;17927;52.350;13.402;2022-11-23T14:53:26;13.85;;;9.82;;
31298;SDS011;17927;52.350;13.402;2022-11-23T14:55:53;14.57;;;10.23;;
31298;SDS011;17927;52.350;13.402;2022-11-23T14:58:19;13.23;;;9.55;;
31298;SDS011;17927;52.350;13.402;2022-11-23T15:00:49;13.77;;;9.73;;
31298;SDS011;17927;52.350;13.402;2022-11-23T15:03:16;18.77;;;10.50;;
31298;SDS011;17927;52.350;13.402;2022-11-23T15:05:47;13.20;;;8.80;;
31298;SDS011;17927;52.350;13.402;2022-11-23T15:08:19;17.90;;;9.88;;
31298;SDS011;17927;52.350;13.402;2022-11-23T15:11:04;16.50;;;9.68;;
31298;SDS011;17927;52.350;13.402;2022-11-23T15:13:43;16.00;;;10.18;;
31298;SDS011;17927;52.350;13.402;2022-11-23T15:16:17;18.02;;;9.93;;
31298;SDS011;17927;52.350;13.402;2022-11-23T15:18:44;21.17;;;11.32;;
31298;SDS011;17927;52.350;13.402;2022-11-23T15:23:46;26.23;;;12.75;;
31298;SDS011;17927;52.350;13.402;2022-11-23T15:26:18;24.17;;;12.32;;
31298;SDS011;17927;52.350;13.402;2022-11-23T15:28:45;26.83;;;14.57;;
31298;SDS011;17927;52.350;13.402;2022-11-23T15:33:58;22.98;;;12.82;;
31298;SDS011;17927;52.350;13.402;2022-11-23T15:36:28;26.00;;;12.27;;
31298;SDS011;17927;52.350;13.402;2022-11-23T15:38:56;32.05;;;14.50;;